Time;durP1;ratioP1;P1;durP2;ratioP2;P2;SDS_P1;SDS_P2;PMS_P1;PMS_P2;Temp;Humidity;BMP_temperature;BMP_pressure;BME280_temperature;BME280_humidity;BME280_pressure;Samples;Min_cycle;Max_cycle;Signal;HPM_P1;HPM_P2
2021/05/04 00:02:05;;;;;;;3.27;2.97;;;5.40;89.20;;;;;;4976110;28;20252;-84
2021/05/04 00:04:32;;;;;;;5.57;3.00;;;5.40;89.20;;;;;;4998820;28;20248;-83
2021/05/04 00:06:58;;;;;;;3.30;3.00;;;5.40;89.30;;;;;;4997018;28;20741;-86
2021/05/04 00:09:25;;;;;;;3.03;2.73;;;5.40;89.20;;;;;;4987057;28;20224;-84
2021/05/04 00:11:53;;;;;;;3.50;3.10;;;5.30;89.10;;;;;;4991477;28;20208;-85
2021/05/04 00:14:19;;;;;;;3.10;2.80;;;5.30;89.10;;;;;;4994791;28;20224;-84
2021/05/04 00:16:45;;;;;;;3.40;3.00;;;5.30;89.40;;;;;;4982840;28;20215;-85
2021/05/04 00:19:12;;;;;;;3.60;2.80;;;5.30;89.10;;;;;;5002393;28;20227;-84
2021/05/04 00:21:39;;;;;;;3.07;2.77;;;5.40;89.20;;;;;;5002960;28;20231;-84
2021/05/04 00:24:06;;;;;;;3.20;2.83;;;5.40;89.20;;;;;;4999116;28;20271;-85
2021/05/04 00:26:33;;;;;;;2.90;2.70;;;5.40;89.20;;;;;;4997234;28;20293;-84
2021/05/04 00:29:00;;;;;;;3.73;2.73;;;5.30;89.10;;;;;;5001322;28;20586;-84
2021/05/04 00:31:26;;;;;;;3.13;2.83;;;5.30;89.20;;;;;;4998386;28;20211;-84
2021/05/04 00:33:53;;;;;;;3.50;2.80;;;5.20;89.10;;;;;;5001063;28;20227;-84
2021/05/04 00:36:20;;;;;;;3.40;3.10;;;5.10;89.00;;;;;;5005368;28;20655;-85
2021/05/04 00:38:46;;;;;;;4.80;3.10;;;5.00;89.00;;;;;;5004929;28;20235;-84
2021/05/04 00:41:13;;;;;;;3.40;3.10;;;5.00;90.10;;;;;;4996935;28;20597;-84
2021/05/04 00:43:39;;;;;;;3.70;3.10;;;5.00;90.10;;;;;;5002670;28;20199;-91
2021/05/04 00:46:06;;;;;;;5.27;2.90;;;4.90;90.10;;;;;;5003322;28;20212;-84
2021/05/04 00:48:33;;;;;;;3.30;3.00;;;4.90;90.30;;;;;;5002320;28;20226;-83
2021/05/04 00:51:01;;;;;;;3.33;3.03;;;4.80;90.50;;;;;;4989208;28;20203;-86
2021/05/04 00:53:29;;;;;;;3.30;3.00;;;4.80;90.60;;;;;;4998447;28;20204;-89
2021/05/04 00:55:56;;;;;;;3.20;2.83;;;4.90;90.90;;;;;;4996773;28;20204;-84
2021/05/04 00:58:24;;;;;;;3.00;2.70;;;5.00;90.40;;;;;;5001529;28;20254;-87
2021/05/04 01:00:50;;;;;;;3.20;2.90;;;5.00;90.40;;;;;;4990022;28;20228;-93
2021/05/04 01:03:18;;;;;;;3.90;2.80;;;4.90;90.60;;;;;;5002738;28;20215;-86
2021/05/04 01:05:45;;;;;;;4.60;2.90;;;4.80;91.20;;;;;;5003039;28;20234;-86
2021/05/04 01:08:12;;;;;;;5.70;3.27;;;4.70;91.00;;;;;;4996279;28;20212;-85
2021/05/04 01:10:39;;;;;;;3.40;2.93;;;4.60;91.30;;;;;;4996540;28;20244;-84
2021/05/04 01:13:06;;;;;;;3.97;3.00;;;4.60;91.40;;;;;;4995750;28;20204;-84
2021/05/04 01:15:33;;;;;;;4.20;3.03;;;4.60;91.50;;;;;;5001052;28;20232;-84
2021/05/04 01:17:59;;;;;;;3.37;2.80;;;4.60;91.70;;;;;;5004006;28;20208;-85
2021/05/04 01:20:27;;;;;;;3.47;2.70;;;4.60;91.70;;;;;;4996642;28;20236;-84
2021/05/04 01:22:54;;;;;;;3.27;2.97;;;4.60;91.30;;;;;;4997279;28;20227;-87
2021/05/04 01:25:21;;;;;;;3.70;3.20;;;4.60;91.80;;;;;;4995452;28;20223;-84
2021/05/04 01:27:47;;;;;;;3.60;3.10;;;4.50;91.80;;;;;;4999593;28;20230;-85
2021/05/04 01:30:15;;;;;;;3.90;3.00;;;4.50;91.60;;;;;;4996679;28;20290;-84
2021/05/04 01:32:41;;;;;;;3.40;3.10;;;4.60;91.60;;;;;;4999570;28;20202;-84
2021/05/04 01:35:09;;;;;;;3.47;2.73;;;4.50;91.60;;;;;;5001103;28;20259;-83
2021/05/04 01:37:37;;;;;;;3.30;3.00;;;4.50;91.40;;;;;;5002103;28;20208;-83
2021/05/04 01:40:06;;;;;;;3.77;3.07;;;4.40;91.70;;;;;;4995522;28;20232;-84
2021/05/04 01:42:32;;;;;;;3.37;3.07;;;4.40;92.00;;;;;;5002220;28;20200;-86
2021/05/04 01:44:58;;;;;;;4.67;3.20;;;4.40;92.10;;;;;;4999040;28;20286;-84
2021/05/04 01:47:25;;;;;;;3.00;2.80;;;4.30;92.50;;;;;;5000658;28;20664;-83
2021/05/04 01:49:51;;;;;;;3.70;3.40;;;4.30;92.20;;;;;;4998792;28;20691;-84
2021/05/04 01:52:20;;;;;;;3.37;2.80;;;4.30;92.50;;;;;;5000016;28;20196;-87
2021/05/04 01:54:49;;;;;;;3.50;3.20;;;4.30;92.20;;;;;;4995599;28;20242;-88
2021/05/04 01:57:16;;;;;;;3.20;2.80;;;4.30;92.20;;;;;;5000325;28;20202;-84
2021/05/04 01:59:43;;;;;;;3.53;3.00;;;4.20;92.40;;;;;;5001410;28;20307;-84
2021/05/04 02:02:09;;;;;;;2.93;2.63;;;4.30;92.50;;;;;;4994565;28;20241;-86
2021/05/04 02:04:35;;;;;;;4.03;3.10;;;4.30;92.20;;;;;;4997537;28;20279;-83
2021/05/04 02:07:03;;;;;;;4.33;2.90;;;4.30;92.40;;;;;;4995803;28;20215;-83
2021/05/04 02:09:29;;;;;;;3.00;2.70;;;4.30;92.50;;;;;;4995333;28;20224;-83
2021/05/04 02:11:56;;;;;;;3.37;3.07;;;4.30;92.20;;;;;;4998976;28;20200;-85
2021/05/04 02:14:23;;;;;;;3.20;2.90;;;4.30;92.60;;;;;;4997513;28;20596;-84
2021/05/04 02:16:49;;;;;;;3.30;3.00;;;4.20;92.20;;;;;;5000844;28;20203;-85
2021/05/04 02:19:16;;;;;;;3.10;2.80;;;4.20;92.40;;;;;;5001622;28;20220;-85
2021/05/04 02:21:42;;;;;;;5.07;2.90;;;4.20;92.40;;;;;;5001244;28;20231;-84
2021/05/04 02:24:09;;;;;;;3.20;2.90;;;4.20;92.20;;;;;;4997304;28;20266;-83
2021/05/04 02:26:36;;;;;;;4.67;2.80;;;4.30;92.20;;;;;;5001158;28;20211;-84
2021/05/04 02:29:02;;;;;;;2.90;2.70;;;4.40;92.50;;;;;;5002119;28;20227;-84
2021/05/04 02:31:30;;;;;;;3.30;2.67;;;4.30;92.10;;;;;;5000586;28;20654;-84
2021/05/04 02:33:56;;;;;;;3.00;2.70;;;4.30;92.20;;;;;;4995514;28;20229;-85
2021/05/04 02:36:23;;;;;;;4.00;3.00;;;4.30;92.40;;;;;;4998230;28;20210;-85
2021/05/04 02:38:49;;;;;;;3.37;2.60;;;4.30;92.40;;;;;;5000784;28;20227;-85
2021/05/04 02:41:16;;;;;;;3.30;2.77;;;4.30;92.60;;;;;;4998162;28;20216;-85
2021/05/04 02:43:42;;;;;;;3.10;2.60;;;4.20;92.50;;;;;;4995194;28;20562;-83
2021/05/04 02:46:08;;;;;;;2.70;2.50;;;4.20;92.70;;;;;;4997143;28;20201;-84
2021/05/04 02:48:43;;;;;;;3.17;2.87;;;4.30;93.20;;;;;;4995928;28;20212;-86
2021/05/04 02:51:11;;;;;;;2.90;2.70;;;4.30;92.90;;;;;;4991616;28;20619;-83
2021/05/04 02:53:38;;;;;;;5.27;2.90;;;4.30;92.70;;;;;;4990809;28;20209;-84
2021/05/04 02:56:06;;;;;;;4.77;2.50;;;4.30;92.50;;;;;;4998393;28;20209;-84
2021/05/04 02:58:32;;;;;;;2.60;2.40;;;4.40;92.40;;;;;;4986393;28;20205;-84
2021/05/04 03:00:59;;;;;;;2.83;2.53;;;4.40;92.50;;;;;;4997765;28;20224;-83
2021/05/04 03:03:25;;;;;;;2.50;2.30;;;4.30;92.60;;;;;;4993597;28;20196;-86
2021/05/04 03:05:53;;;;;;;3.53;2.47;;;4.20;92.70;;;;;;4994907;28;20200;-84
2021/05/04 03:08:19;;;;;;;2.87;2.50;;;4.20;92.80;;;;;;4996167;28;20211;-84
2021/05/04 03:10:46;;;;;;;3.03;2.70;;;4.20;92.70;;;;;;4977932;28;20223;-84
2021/05/04 03:13:13;;;;;;;2.90;2.37;;;4.20;92.80;;;;;;4996203;28;20562;-89
2021/05/04 03:15:39;;;;;;;3.73;2.53;;;4.20;92.80;;;;;;4994922;28;20223;-84
2021/05/04 03:18:06;;;;;;;3.20;2.73;;;4.30;92.70;;;;;;4988070;28;20549;-83
2021/05/04 03:20:33;;;;;;;3.13;2.37;;;4.30;92.40;;;;;;4995357;28;20234;-88
2021/05/04 03:23:00;;;;;;;2.40;2.20;;;4.30;92.10;;;;;;4978795;28;20196;-84
2021/05/04 03:25:26;;;;;;;3.13;2.40;;;4.20;92.40;;;;;;4993081;28;20231;-87
2021/05/04 03:27:54;;;;;;;5.37;2.70;;;4.20;92.40;;;;;;4996184;28;20200;-83
2021/05/04 03:30:20;;;;;;;3.10;2.43;;;4.20;92.30;;;;;;4994779;28;20254;-84
2021/05/04 03:32:47;;;;;;;2.40;2.20;;;4.10;92.30;;;;;;4995098;28;20678;-86
2021/05/04 03:35:14;;;;;;;2.47;2.20;;;4.20;92.40;;;;;;4994275;28;20232;-84
2021/05/04 03:37:40;;;;;;;3.13;2.37;;;4.20;92.20;;;;;;4996773;28;20204;-89
2021/05/04 03:40:09;;;;;;;2.50;2.07;;;4.20;92.20;;;;;;4990067;28;20220;-84
2021/05/04 03:42:35;;;;;;;2.80;2.50;;;4.20;92.10;;;;;;4997503;28;20211;-83
2021/05/04 03:45:02;;;;;;;3.00;2.20;;;4.20;92.00;;;;;;4991571;28;20223;-84
2021/05/04 03:47:29;;;;;;;2.60;2.37;;;4.20;92.20;;;;;;4996601;28;20204;-83
2021/05/04 03:49:56;;;;;;;2.47;2.27;;;4.20;92.20;;;;;;4997770;28;20282;-85
2021/05/04 03:52:22;;;;;;;2.20;2.07;;;4.30;92.20;;;;;;4998484;28;20210;-86
2021/05/04 03:54:49;;;;;;;2.70;2.40;;;4.30;91.90;;;;;;4994593;28;20223;-84
2021/05/04 03:57:16;;;;;;;2.87;2.57;;;4.30;91.90;;;;;;4991727;28;20196;-88
2021/05/04 03:59:43;;;;;;;2.90;2.50;;;4.30;92.00;;;;;;4995922;28;20227;-84
2021/05/04 04:02:09;;;;;;;2.40;2.20;;;4.30;91.90;;;;;;4993643;28;20843;-83
2021/05/04 04:04:36;;;;;;;3.40;2.37;;;4.30;91.80;;;;;;4998065;28;20243;-87
2021/05/04 04:07:02;;;;;;;2.87;2.47;;;4.50;91.90;;;;;;4996719;28;20617;-84
2021/05/04 04:09:28;;;;;;;2.60;2.40;;;4.50;91.90;;;;;;4994591;28;20290;-84
2021/05/04 04:11:54;;;;;;;3.10;2.30;;;4.50;91.50;;;;;;4994143;28;20219;-85
2021/05/04 04:14:22;;;;;;;2.20;2.00;;;4.60;91.40;;;;;;4998471;28;20220;-84
2021/05/04 04:16:48;;;;;;;2.57;2.33;;;4.60;91.30;;;;;;4992032;28;20203;-83
2021/05/04 04:19:14;;;;;;;2.20;2.00;;;4.60;91.10;;;;;;4998313;28;20254;-84
2021/05/04 04:21:41;;;;;;;3.23;2.30;;;4.70;91.00;;;;;;4998686;28;20223;-84
2021/05/04 04:24:09;;;;;;;3.47;2.30;;;4.80;90.80;;;;;;4998649;28;20223;-86
2021/05/04 04:26:35;;;;;;;2.93;2.20;;;5.00;90.50;;;;;;4999894;28;20663;-83
2021/05/04 04:29:01;;;;;;;4.53;2.30;;;5.10;90.10;;;;;;4999168;28;20286;-83
2021/05/04 04:31:28;;;;;;;3.47;2.10;;;5.10;90.00;;;;;;4999941;28;20223;-83
2021/05/04 04:33:58;;;;;;;2.30;2.10;;;5.20;90.30;;;;;;4986230;28;20224;-83
2021/05/04 04:36:24;;;;;;;5.67;2.03;;;5.10;90.60;;;;;;5000198;28;20659;-83
2021/05/04 04:38:51;;;;;;;2.20;2.00;;;5.10;90.60;;;;;;4986532;28;20227;-83
2021/05/04 04:41:18;;;;;;;4.63;2.33;;;5.30;90.00;;;;;;4981910;28;20224;-89
2021/05/04 04:43:44;;;;;;;3.57;2.40;;;5.40;89.30;;;;;;4998631;28;20647;-87
2021/05/04 04:46:10;;;;;;;4.70;2.40;;;5.50;90.00;;;;;;4992409;28;20567;-84
2021/05/04 04:48:38;;;;;;;3.20;2.53;;;5.50;89.30;;;;;;4998445;28;20210;-87
2021/05/04 04:51:04;;;;;;;3.07;2.33;;;5.50;89.30;;;;;;4999017;28;20220;-87
2021/05/04 04:53:31;;;;;;;4.17;2.30;;;5.50;89.30;;;;;;4997977;28;20211;-85
2021/05/04 04:55:57;;;;;;;3.47;2.30;;;5.60;89.50;;;;;;4998940;28;20317;-85
2021/05/04 04:58:24;;;;;;;3.00;2.27;;;5.70;89.40;;;;;;4996061;28;20208;-85
2021/05/04 05:00:50;;;;;;;5.13;2.30;;;5.80;89.50;;;;;;4993652;28;20223;-85
2021/05/04 05:03:16;;;;;;;2.53;2.20;;;5.80;89.50;;;;;;5003752;28;20204;-85
2021/05/04 05:05:44;;;;;;;2.60;1.93;;;5.80;89.50;;;;;;5002025;28;20635;-84
2021/05/04 05:08:10;;;;;;;3.57;2.47;;;5.90;89.50;;;;;;5002204;28;20686;-85
2021/05/04 05:10:37;;;;;;;6.03;3.17;;;6.00;89.60;;;;;;5001739;28;20239;-84
2021/05/04 05:13:03;;;;;;;4.77;2.57;;;6.10;89.70;;;;;;5003302;28;20211;-85
2021/05/04 05:15:36;;;;;;;3.90;2.33;;;6.20;89.80;;;;;;5002299;28;20282;-84
2021/05/04 05:18:05;;;;;;;2.93;2.47;;;6.30;88.80;;;;;;5000864;28;20195;-84
2021/05/04 05:20:31;;;;;;;2.43;2.23;;;6.40;87.50;;;;;;4980779;28;20674;-87
2021/05/04 05:22:59;;;;;;;3.73;2.57;;;6.50;86.90;;;;;;5003591;28;20199;-87
2021/05/04 05:25:26;;;;;;;4.70;2.33;;;6.70;82.70;;;;;;4989905;28;20224;-86
2021/05/04 05:27:52;;;;;;;4.63;2.10;;;7.10;78.70;;;;;;5002674;28;20659;-87
2021/05/04 05:30:19;;;;;;;2.27;1.90;;;7.70;75.70;;;;;;5005591;28;20230;-86
2021/05/04 05:32:45;;;;;;;5.47;2.60;;;8.10;73.00;;;;;;5005716;28;20188;-86
2021/05/04 05:35:29;;;;;;;2.33;1.80;;;8.60;66.90;;;;;;5004119;28;20285;-86
2021/05/04 05:38:27;;;;;;;4.53;2.00;;;9.00;63.90;;;;;;5003269;28;20542;-86
2021/05/04 05:41:25;;;;;;;5.35;1.85;;;9.20;60.10;;;;;;5000504;28;20235;-87
2021/05/04 05:43:51;;;;;;;3.05;2.13;;;9.50;57.20;;;;;;5004075;28;20755;-86
2021/05/04 05:46:18;;;;;;;4.93;1.88;;;9.90;53.80;;;;;;5004767;28;20188;-86
2021/05/04 06:06:11;;;;;;;4.97;1.90;;;11.90;43.50;;;;;;5008203;28;20235;-91
2021/05/04 06:08:39;;;;;;;5.82;2.50;;;12.20;41.50;;;;;;5006665;28;20242;-87
2021/05/04 06:11:06;;;;;;;2.08;1.88;;;12.40;41.00;;;;;;5004822;28;20207;-88
2021/05/04 06:13:33;;;;;;;2.28;2.00;;;12.50;40.00;;;;;;4977003;28;20216;-91
2021/05/04 06:15:59;;;;;;;2.67;2.00;;;12.70;39.30;;;;;;5005930;28;20210;-89
2021/05/04 06:18:26;;;;;;;2.35;1.88;;;12.40;39.60;;;;;;4980585;28;20205;-87
2021/05/04 06:20:52;;;;;;;1.90;1.70;;;12.50;39.70;;;;;;5003277;28;20311;-87
2021/05/04 06:23:19;;;;;;;2.33;2.13;;;12.50;39.50;;;;;;5002280;28;20199;-87
2021/05/04 07:09:22;;;;;;;2.65;1.70;;;14.20;36.70;;;;;;5002845;28;20238;-87
2021/05/04 07:22:57;;;;;;;2.13;1.90;;;14.50;31.60;;;;;;5006344;28;20227;-88
2021/05/04 07:25:26;;;;;;;2.92;2.00;;;14.50;32.40;;;;;;4986584;28;20205;-87
2021/05/04 07:30:30;;;;;;;3.42;2.00;;;14.90;32.50;;;;;;5225352;23;3051347;-89
2021/05/04 07:32:56;;;;;;;2.63;2.08;;;15.10;31.30;;;;;;5019120;28;20267;-90
2021/05/04 07:35:23;;;;;;;1.88;1.73;;;15.20;30.30;;;;;;5022688;28;20235;-87
2021/05/04 07:38:34;;;;;;;2.60;2.20;;;15.00;31.90;;;;;;5006214;28;20593;-86
2021/05/04 07:41:08;;;;;;;2.08;1.88;;;15.00;33.10;;;;;;5024370;28;20227;-89
2021/05/04 07:43:35;;;;;;;2.33;2.13;;;15.40;30.80;;;;;;5013641;28;20206;-91
2021/05/04 07:46:02;;;;;;;2.65;2.28;;;15.60;31.50;;;;;;5013950;28;20199;-91
2021/05/04 07:48:28;;;;;;;2.03;1.83;;;15.90;28.70;;;;;;5004139;28;20196;-88
2021/05/04 07:50:55;;;;;;;4.25;2.00;;;15.80;31.30;;;;;;5014223;28;20210;-93
2021/05/04 07:53:33;;;;;;;2.42;2.10;;;16.10;30.00;;;;;;5014709;28;20203;-88
2021/05/04 07:56:01;;;;;;;2.17;1.98;;;16.50;29.10;;;;;;5011121;28;20282;-91
2021/05/04 07:58:29;;;;;;;2.70;2.15;;;16.40;29.00;;;;;;5019755;28;20209;-92
2021/05/04 08:01:04;;;;;;;3.45;2.10;;;16.40;29.10;;;;;;5019187;28;20262;-91
2021/05/04 08:04:21;;;;;;;1.98;1.83;;;16.60;29.20;;;;;;5013971;28;20205;-88
2021/05/04 08:06:55;;;;;;;3.25;2.00;;;16.80;29.40;;;;;;5009070;28;20670;-92
2021/05/04 08:09:22;;;;;;;3.30;2.10;;;16.70;29.30;;;;;;5011073;28;20222;-92
2021/05/04 08:11:48;;;;;;;2.42;2.08;;;17.20;29.70;;;;;;5011978;28;20234;-93
2021/05/04 08:14:17;;;;;;;1.90;1.80;;;17.30;29.80;;;;;;4992942;28;20273;-92
2021/05/04 08:16:52;;;;;;;2.45;2.00;;;17.20;28.70;;;;;;5022357;28;20566;-93
2021/05/04 08:19:18;;;;;;;2.85;2.10;;;17.40;27.10;;;;;;5022695;28;20226;-92
2021/05/04 08:21:45;;;;;;;3.47;2.00;;;17.70;27.90;;;;;;5007989;28;20223;-92
2021/05/04 08:24:12;;;;;;;2.45;1.80;;;17.60;30.00;;;;;;5009498;28;20772;-92
2021/05/04 08:26:40;;;;;;;2.72;2.13;;;17.80;26.80;;;;;;5010726;28;20258;-92
2021/05/04 08:29:06;;;;;;;4.00;2.17;;;17.80;27.60;;;;;;4994691;28;20231;-92
2021/05/04 08:31:34;;;;;;;2.17;1.98;;;18.10;25.90;;;;;;4992043;28;20204;-92
2021/05/04 08:34:00;;;;;;;2.00;1.80;;;17.90;25.30;;;;;;4999134;28;20234;-91
2021/05/04 08:36:27;;;;;;;2.30;2.10;;;17.40;26.80;;;;;;4997601;28;20208;-92
2021/05/04 08:38:53;;;;;;;3.38;2.30;;;17.50;26.90;;;;;;4999957;28;20238;-92
2021/05/04 08:41:20;;;;;;;2.78;2.20;;;17.50;26.40;;;;;;4994052;28;20246;-91
2021/05/04 08:43:48;;;;;;;2.50;2.00;;;17.60;28.60;;;;;;4988394;28;20508;-92
2021/05/04 08:46:22;;;;;;;6.05;2.15;;;18.00;27.20;;;;;;4987919;28;20259;-90
2021/05/04 08:48:53;;;;;;;2.42;2.08;;;18.60;25.70;;;;;;4997524;28;20227;-91
2021/05/04 08:51:25;;;;;;;4.18;2.17;;;19.40;25.10;;;;;;5001172;28;20200;-88
2021/05/04 08:53:52;;;;;;;3.60;2.40;;;20.50;21.70;;;;;;4999851;28;20231;-91
2021/05/04 08:56:20;;;;;;;3.10;2.15;;;21.10;23.00;;;;;;4998665;28;20202;-89
2021/05/04 08:58:46;;;;;;;5.35;2.40;;;21.30;20.90;;;;;;4979584;28;20200;-89
2021/05/04 09:01:12;;;;;;;3.97;2.17;;;22.30;19.40;;;;;;4991858;28;20231;-89
2021/05/04 09:03:43;;;;;;;3.50;2.53;;;22.70;20.50;;;;;;4997078;28;20208;-88
2021/05/04 09:06:14;;;;;;;4.65;2.38;;;23.00;18.30;;;;;;4985403;28;20204;-88
2021/05/04 09:08:45;;;;;;;2.55;2.35;;;22.90;18.70;;;;;;4982068;28;20227;-87
2021/05/04 09:11:29;;;;;;;3.47;2.20;;;22.40;18.90;;;;;;4981499;28;20678;-88
2021/05/04 09:14:02;;;;;;;2.88;2.08;;;22.20;19.30;;;;;;4982556;28;20227;-88
2021/05/04 09:16:40;;;;;;;3.13;2.15;;;21.00;18.70;;;;;;4987547;28;20200;-88
2021/05/04 09:21:55;;;;;;;2.60;2.22;;;20.70;20.90;;;;;;4987827;28;20235;-88
2021/05/04 09:24:36;;;;;;;3.33;1.85;;;20.90;21.00;;;;;;4983705;28;20290;-88
2021/05/04 09:27:05;;;;;;;2.88;2.15;;;21.80;21.10;;;;;;4985977;28;20200;-87
2021/05/04 09:29:34;;;;;;;3.35;2.28;;;22.40;19.50;;;;;;4991869;28;20223;-83
2021/05/04 09:32:17;;;;;;;3.97;2.13;;;23.20;19.00;;;;;;4990773;28;20216;-86
2021/05/04 09:34:47;;;;;;;2.45;1.95;;;23.60;16.40;;;;;;4993575;28;20216;-86
2021/05/04 09:37:44;;;;;;;2.30;2.10;;;23.40;17.20;;;;;;4996488;28;20231;-85
2021/05/04 09:40:26;;;;;;;5.20;2.10;;;24.10;17.10;;;;;;4994335;28;20255;-83
2021/05/04 09:43:10;;;;;;;2.47;2.20;;;24.30;16.40;;;;;;4989429;28;20228;-85
2021/05/04 09:45:39;;;;;;;2.75;1.90;;;23.90;17.80;;;;;;4989814;28;20246;-86
2021/05/04 09:48:17;;;;;;;3.72;2.75;;;24.00;16.00;;;;;;4988548;28;20266;-86
2021/05/04 09:50:54;;;;;;;6.50;2.30;;;23.80;16.30;;;;;;4995029;28;20591;-84
2021/05/04 09:53:23;;;;;;;4.15;1.95;;;23.90;15.00;;;;;;4985908;28;20204;-83
2021/05/04 09:55:55;;;;;;;2.47;2.28;;;23.00;16.00;;;;;;4984683;28;20217;-86
2021/05/04 09:58:39;;;;;;;2.88;2.10;;;22.90;17.20;;;;;;4986293;28;20204;-85
2021/05/04 10:01:08;;;;;;;3.47;2.30;;;23.30;16.00;;;;;;4981020;28;20589;-83
2021/05/04 10:03:35;;;;;;;2.72;2.05;;;23.00;16.70;;;;;;4991219;28;20207;-82
2021/05/04 10:06:04;;;;;;;2.90;2.03;;;22.70;16.80;;;;;;4996561;28;20196;-85
2021/05/04 10:08:32;;;;;;;3.58;2.22;;;22.60;16.90;;;;;;4998957;28;20208;-85
2021/05/04 10:11:00;;;;;;;2.10;1.90;;;22.40;17.30;;;;;;4998570;28;20231;-86
2021/05/04 10:13:28;;;;;;;3.72;1.75;;;22.60;16.00;;;;;;4996617;28;20655;-87
2021/05/04 10:16:02;;;;;;;4.30;2.20;;;22.60;14.30;;;;;;4997347;28;20228;-85
2021/05/04 10:18:31;;;;;;;5.15;2.42;;;22.60;17.70;;;;;;4992455;28;20338;-87
2021/05/04 10:20:59;;;;;;;2.58;2.00;;;22.60;16.70;;;;;;4988900;28;20226;-84
2021/05/04 10:23:28;;;;;;;3.85;2.22;;;22.20;14.50;;;;;;4996105;28;20208;-86
2021/05/04 10:25:59;;;;;;;3.28;2.10;;;21.70;16.90;;;;;;4988840;28;20220;-88
2021/05/04 10:28:31;;;;;;;7.82;2.35;;;21.70;15.60;;;;;;4988704;28;20216;-88
2021/05/04 10:31:01;;;;;;;3.17;2.20;;;21.60;16.70;;;;;;4986797;28;20228;-88
2021/05/04 10:33:30;;;;;;;4.65;2.10;;;21.50;16.20;;;;;;4984995;28;20292;-87
2021/05/04 10:35:57;;;;;;;2.00;1.90;;;21.40;16.60;;;;;;4991116;28;20212;-88
2021/05/04 10:38:24;;;;;;;5.03;2.22;;;21.20;17.90;;;;;;4988601;28;20208;-88
2021/05/04 10:41:01;;;;;;;5.07;2.10;;;20.70;18.10;;;;;;4991096;28;20234;-89
2021/05/04 10:43:40;;;;;;;4.28;2.20;;;20.50;18.90;;;;;;4992096;28;20561;-90
2021/05/04 10:46:34;;;;;;;2.33;1.80;;;20.40;18.00;;;;;;4997036;28;20647;-89
2021/05/04 10:49:00;;;;;;;2.47;2.08;;;20.60;18.00;;;;;;4989627;28;20228;-90
2021/05/04 10:51:43;;;;;;;2.15;1.50;;;20.50;17.40;;;;;;4994083;28;20578;-90
2021/05/04 10:54:10;;;;;;;4.70;2.08;;;20.60;18.80;;;;;;4976683;28;20231;-91
2021/05/04 10:56:42;;;;;;;3.22;2.10;;;20.60;18.50;;;;;;4989040;28;20251;-90
2021/05/04 10:59:10;;;;;;;3.70;1.80;;;20.90;19.60;;;;;;4983678;28;20379;-90
2021/05/04 11:01:37;;;;;;;3.97;2.03;;;20.90;17.50;;;;;;4987928;28;20652;-90
2021/05/04 11:04:05;;;;;;;6.25;1.98;;;20.70;19.40;;;;;;4990040;28;20242;-90
2021/05/04 11:06:45;;;;;;;3.13;1.80;;;20.30;18.90;;;;;;4995610;28;20760;-92
2021/05/04 11:09:17;;;;;;;4.95;1.90;;;20.20;18.70;;;;;;4998089;28;20297;-88
2021/05/04 11:11:47;;;;;;;6.07;2.30;;;20.10;21.50;;;;;;4993497;28;20320;-87
2021/05/04 11:14:25;;;;;;;20.65;2.90;;;19.80;20.60;;;;;;4994529;28;20224;-89
2021/05/04 11:17:14;;;;;;;4.57;2.05;;;19.30;20.80;;;;;;4997359;28;20227;-92
2021/05/04 11:23:03;;;;;;;5.10;2.00;;;19.40;21.80;;;;;;4997494;28;20702;-92
2021/05/04 11:25:36;;;;;;;2.80;1.83;;;19.60;21.90;;;;;;4997726;28;20232;-92
2021/05/04 11:28:04;;;;;;;4.63;1.63;;;19.80;22.20;;;;;;4990440;28;20224;-91
2021/05/04 11:30:33;;;;;;;6.07;1.88;;;19.80;20.90;;;;;;5001887;28;20238;-88
2021/05/04 11:32:59;;;;;;;3.60;2.10;;;19.80;22.10;;;;;;4988820;28;20222;-93
2021/05/04 11:35:36;;;;;;;4.68;1.80;;;19.70;21.50;;;;;;4990446;28;20254;-90
2021/05/04 11:38:03;;;;;;;3.45;1.60;;;19.40;22.60;;;;;;4996663;28;20212;-92
2021/05/04 11:40:30;;;;;;;5.55;1.80;;;19.40;21.90;;;;;;4999918;28;20337;-92
2021/05/04 11:42:57;;;;;;;3.05;1.90;;;19.30;21.20;;;;;;4994708;28;20683;-91
2021/05/04 11:45:28;;;;;;;4.60;2.00;;;19.50;23.50;;;;;;4988559;28;20338;-93
2021/05/04 11:47:56;;;;;;;4.80;1.98;;;19.70;23.60;;;;;;4986645;28;20227;-91
2021/05/04 11:50:24;;;;;;;3.92;1.80;;;19.60;20.00;;;;;;4989013;28;20224;-92
2021/05/04 11:52:51;;;;;;;3.88;2.10;;;19.50;21.60;;;;;;4997752;28;20566;-87
2021/05/04 12:02:07;;;;;;;3.67;1.67;;;19.60;22.70;;;;;;5000839;28;20208;-87
2021/05/04 12:04:47;;;;;;;2.88;1.80;;;19.70;21.40;;;;;;5009553;28;20206;-88
2021/05/04 12:07:13;;;;;;;4.97;1.92;;;19.60;20.00;;;;;;4992258;28;20245;-88
2021/05/04 12:09:40;;;;;;;4.00;1.90;;;19.60;22.00;;;;;;4993261;28;20817;-90
2021/05/04 12:12:13;;;;;;;3.47;1.90;;;19.70;22.80;;;;;;4986685;28;20208;-86
2021/05/04 12:14:55;;;;;;;2.58;1.80;;;19.80;20.90;;;;;;4989949;28;20228;-89
2021/05/04 12:17:26;;;;;;;5.97;2.13;;;19.80;20.10;;;;;;4989580;28;20196;-88
2021/05/04 12:19:52;;;;;;;4.80;1.80;;;19.70;21.70;;;;;;4992648;28;20353;-92
2021/05/04 12:22:19;;;;;;;4.07;2.05;;;19.50;21.90;;;;;;4985370;28;20267;-88
2021/05/04 12:24:45;;;;;;;2.80;2.00;;;19.20;21.90;;;;;;4984543;28;20228;-90
2021/05/04 12:27:12;;;;;;;6.95;2.20;;;18.90;22.90;;;;;;4989381;28;20326;-91
2021/05/04 12:29:39;;;;;;;8.65;2.15;;;18.90;24.50;;;;;;4987348;28;20259;-91
2021/05/04 12:32:05;;;;;;;5.70;2.38;;;18.80;23.80;;;;;;4986957;28;20484;-91
2021/05/04 12:34:34;;;;;;;5.93;2.05;;;18.70;23.30;;;;;;4982200;28;20668;-92
2021/05/04 12:37:01;;;;;;;4.60;1.98;;;18.70;23.90;;;;;;4985572;28;20208;-91
2021/05/04 12:39:47;;;;;;;4.82;2.17;;;18.60;22.70;;;;;;4982508;28;20310;-91
2021/05/04 12:42:27;;;;;;;5.47;1.90;;;18.60;23.70;;;;;;4985674;28;20330;-91
2021/05/04 12:45:08;;;;;;;3.67;2.30;;;18.70;22.50;;;;;;4983457;28;20247;-91
2021/05/04 12:47:34;;;;;;;3.15;1.80;;;18.60;23.70;;;;;;4986344;28;20215;-93
2021/05/04 12:52:42;;;;;;;2.55;2.00;;;19.00;22.00;;;;;;4982234;28;20223;-92
2021/05/04 12:55:09;;;;;;;3.58;1.80;;;18.90;22.50;;;;;;4986374;28;20235;-94
2021/05/04 12:57:36;;;;;;;5.00;2.33;;;18.90;23.30;;;;;;4991868;28;20307;-90
2021/05/04 13:00:13;;;;;;;7.50;2.03;;;18.70;23.50;;;;;;4990574;28;20665;-91
2021/05/04 13:02:39;;;;;;;5.70;2.20;;;18.70;23.50;;;;;;4988289;28;20223;-91
2021/05/04 13:08:23;;;;;;;5.82;2.40;;;19.00;23.50;;;;;;4981737;28;20219;-92
2021/05/04 13:10:56;;;;;;;2.85;2.13;;;19.10;25.10;;;;;;4963352;28;20212;-92
2021/05/04 13:13:34;;;;;;;4.50;2.10;;;19.00;22.20;;;;;;4995595;28;20716;-88
2021/05/04 13:19:34;;;;;;;4.03;1.90;;;18.80;22.70;;;;;;4997398;28;20247;-88
2021/05/04 13:30:22;;;;;;;2.30;1.70;;;18.70;24.70;;;;;;4995604;28;20250;-90
2021/05/04 13:32:52;;;;;;;3.88;1.83;;;18.70;24.60;;;;;;4998854;28;20231;-90
2021/05/04 13:35:21;;;;;;;3.83;1.90;;;18.80;23.70;;;;;;4989241;28;20288;-89
2021/05/04 13:37:57;;;;;;;2.25;1.90;;;18.70;24.30;;;;;;4985263;28;20199;-88
2021/05/04 13:40:48;;;;;;;2.80;1.80;;;18.70;24.60;;;;;;5005172;28;20223;-88
2021/05/04 13:48:43;;;;;;;2.08;1.88;;;19.10;24.10;;;;;;4981622;28;20275;-91
2021/05/04 13:51:18;;;;;;;3.50;1.75;;;19.10;22.90;;;;;;4997289;28;20191;-91
2021/05/04 13:53:54;;;;;;;2.70;1.80;;;19.10;25.10;;;;;;5017173;28;20276;-92
2021/05/04 13:56:20;;;;;;;4.03;1.73;;;19.00;24.90;;;;;;5006949;28;20204;-91
2021/05/04 13:59:07;;;;;;;5.00;2.20;;;19.10;22.90;;;;;;4999114;28;20258;-92
2021/05/04 14:05:18;;;;;;;3.15;2.00;;;19.30;23.20;;;;;;4998741;28;20239;-91
2021/05/04 14:27:19;;;;;;;6.35;1.92;;;18.50;26.40;;;;;;4997571;28;20227;-90
2021/05/04 14:55:36;;;;;;;3.15;2.10;;;18.70;27.50;;;;;;4999425;28;20211;-90
2021/05/04 14:57:11;;;;;;;1.98;1.67;;;18.80;25.80;;;;;;4993916;28;20668;-90
2021/05/04 14:59:45;;;;;;;2.53;2.30;;;18.90;25.90;;;;;;4992398;28;20707;-87
2021/05/04 15:02:11;;;;;;;4.20;2.10;;;18.70;26.50;;;;;;4988853;28;20282;-87
2021/05/04 15:04:42;;;;;;;1.92;1.63;;;18.70;27.00;;;;;;4982628;28;20251;-87
2021/05/04 15:07:08;;;;;;;2.25;1.83;;;18.60;27.00;;;;;;4982498;28;20663;-87
2021/05/04 15:09:35;;;;;;;3.92;2.08;;;18.70;26.30;;;;;;4992540;28;20224;-87
2021/05/04 15:12:03;;;;;;;2.15;1.55;;;18.60;25.10;;;;;;4997202;28;20207;-87
2021/05/04 15:14:39;;;;;;;1.58;1.48;;;18.60;25.40;;;;;;5001373;28;20388;-91
2021/05/04 15:17:11;;;;;;;4.28;1.88;;;18.50;28.00;;;;;;4991976;28;20654;-88
2021/05/04 15:22:56;;;;;;;2.47;1.77;;;18.20;25.90;;;;;;5002611;28;20223;-89
2021/05/04 15:25:22;;;;;;;5.22;3.75;;;18.30;26.30;;;;;;5000940;28;20307;-88
2021/05/04 15:30:22;;;;;;;2.92;1.98;;;18.10;26.80;;;;;;4997154;28;20235;-88
2021/05/04 15:32:57;;;;;;;4.80;3.00;;;18.00;25.40;;;;;;4983723;28;20631;-91
2021/05/04 15:35:27;;;;;;;1.98;1.80;;;17.90;25.90;;;;;;4979890;28;20231;-90
2021/05/04 15:37:53;;;;;;;3.03;2.33;;;17.90;26.00;;;;;;4996083;28;20299;-90
2021/05/04 15:40:20;;;;;;;1.63;1.52;;;17.90;26.70;;;;;;4995327;28;20233;-91
2021/05/04 15:42:47;;;;;;;3.95;1.60;;;17.80;28.00;;;;;;4995240;28;20266;-92
2021/05/04 15:48:47;;;;;;;2.38;1.80;;;17.60;29.90;;;;;;4997596;28;20190;-89
2021/05/04 15:51:28;;;;;;;3.40;1.90;;;17.70;27.40;;;;;;4998176;28;20222;-88